Jordan Valley WCD
8215 S 1300 W, West Jordan
Last Weather Update:04/29/2011 10:00:00 PM
Date
ETo
ETc
Rain
Irrigation
Req
Temp
Max
Temp
Min
Temp
Avg
Avg RH
Avg Wind
Avg Solar
inches
inches
incehs
inches
F
F
F
%
%
watts/m2
11/01/2010 0.06" 0.00" 0.00" 0.00" 62.1° 32.2° 45.0° 70.7% 0.4 MPH 118.3w/m2
11/02/2010 0.06" 0.00" 0.00" 0.00" 62.7° 32.3° 45.4° 69.3% 0.5 MPH 116.4w/m2
11/03/2010 0.06" 0.00" 0.00" 0.00" 63.8° 32.7° 46.1° 70.7% 0.7 MPH 114.7w/m2
11/04/2010 0.06" 0.00" 0.00" 0.00" 70.2° 34.4° 48.6° 71.4% 0.5 MPH 111.9w/m2
11/05/2010 0.05" 0.00" 0.00" 0.00" 70.4° 35.0° 50.1° 70.2% 0.5 MPH 104.3w/m2
11/06/2010 0.09" 0.00" 0.00" 0.00" 70.4° 41.3° 57.1° 47.5% 4.1 MPH 87.5w/m2
11/07/2010 0.09" 0.00" 0.00" 0.00" 64.5° 48.2° 56.2° 40.0% 5.5 MPH 69.3w/m2
11/08/2010 0.02" 0.00" 0.43" -0.34" 60.2° 33.0° 42.8° 76.0% 2.3 MPH 18.1w/m2
11/09/2010 0.03" 0.00" 0.01" -0.01" 42.8° 26.5° 34.6° 71.1% 0.8 MPH 93.4w/m2
11/10/2010 0.03" 0.00" 0.00" 0.00" 41.1° 26.6° 35.2° 68.7% 3.0 MPH 50.0w/m2
11/11/2010 0.04" 0.00" 0.00" 0.00" 45.3° 29.3° 35.8° 65.3% 1.8 MPH 100.9w/m2
11/12/2010 0.04" 0.00" 0.00" 0.00" 49.0° 30.6° 38.4° 58.9% 1.3 MPH 107.1w/m2
11/13/2010 0.03" 0.00" 0.00" 0.00" 44.2° 29.4° 36.1° 66.4% 0.9 MPH 74.9w/m2
11/14/2010 0.02" 0.00" 0.13" -0.10" 41.3° 32.7° 36.5° 74.2% 0.9 MPH 32.9w/m2
11/15/2010 0.03" 0.00" 0.01" -0.01" 51.9° 34.9° 41.9° 75.3% 1.3 MPH 70.3w/m2
11/16/2010 0.06" 0.00" 0.00" 0.00" 54.1° 39.6° 45.1° 53.1% 6.5 MPH 63.1w/m2
11/17/2010 0.05" 0.00" 0.00" 0.00" 49.0° 25.1° 38.3° 58.1% 4.3 MPH 85.4w/m2
11/18/2010 0.11" 0.00" 0.00" 0.00" 63.7° 40.2° 49.8° 29.6% 9.4 MPH 71.2w/m2
11/19/2010 0.11" 0.00" 0.00" 0.00" 56.4° 49.2° 53.1° 25.3% 8.6 MPH 30.7w/m2
11/20/2010 0.08" 0.00" 0.02" -0.02" 54.9° 31.2° 45.9° 55.0% 7.7 MPH 22.9w/m2
11/21/2010 0.02" 0.00" 0.71" -0.57" 39.6° 30.1° 32.6° 82.7% 2.5 MPH 36.1w/m2
11/22/2010 0.05" 0.00" 0.00" 0.00" 40.3° 27.6° 33.2° 57.5% 5.6 MPH 91.5w/m2
11/23/2010 0.06" 0.00" 0.00" 0.00" 39.7° 18.0° 33.5° 56.0% 9.6 MPH 42.0w/m2
11/24/2010 0.02" 0.00" 0.13" -0.10" 24.7° 3.3° 12.1° 65.7% 0.7 MPH 93.4w/m2
11/25/2010 0.02" 0.00" 0.00" 0.00" 26.8° 0.1° 11.1° 67.3% 1.0 MPH 101.0w/m2
11/26/2010 0.03" 0.00" 0.00" 0.00" 34.6° 7.6° 18.0° 68.3% 0.8 MPH 99.5w/m2
11/27/2010 0.01" 0.00" 0.00" 0.00" 29.7° 12.2° 21.2° 77.2% 0.5 MPH 51.2w/m2
11/28/2010 0.01" 0.00" 0.22" -0.18" 29.9° 21.9° 25.3° 89.5% 1.3 MPH 30.4w/m2
11/29/2010 0.02" 0.00" 0.43" -0.34" 31.3° 7.1° 22.1° 80.6% 1.0 MPH 72.2w/m2
11/30/2010 0.02" 0.00" 0.00" 0.00" 28.0° 2.6° 17.0° 76.0% 2.0 MPH 62.4w/m2
Totals: 1.38" 0.00" 2.09" -1.67" 70.4° 0.1° 36.9° 64.6% 2.9 MPH 74.1w/m2